< Typhoon 197215 1972 Season Typhoon 197217 >
Typhoon 197216 (DORIS)
General InformationTrack Information on Google Maps || Disaster Info.ResourceGoogle EarthGE AnimationAtom FeedGeoJSON
Detalied Best Track (Time Zone = UTC)
Year Month Day Hour Lat. Long. Pressure (hPa) Wind (kt) Class Image Chart
1972 8 25 06 26.1 162.6 1010 0 2 -- Chart
1972 8 25 12 27.1 161.9 1008 0 2 -- Chart
1972 8 25 18 27.9 160.9 1006 0 2 -- Chart
1972 8 26 00 29.1 160.1 998 0 9 -- Chart
1972 8 26 06 29.6 160.2 996 0 9 -- Chart
1972 8 26 12 30.1 160.2 994 0 9 -- Chart
1972 8 26 18 30.6 160.1 990 0 9 -- Chart
1972 8 27 00 31.2 160.1 990 0 9 -- Chart
1972 8 27 06 31.9 160.3 985 0 9 -- Chart
1972 8 27 12 32.8 160.5 985 0 9 -- Chart
1972 8 27 18 33.7 160.7 985 0 9 -- Chart
1972 8 28 00 34.6 161.0 985 0 9 -- Chart
1972 8 28 06 35.6 161.6 985 0 9 -- Chart
1972 8 28 12 36.8 161.9 990 0 9 -- Chart
1972 8 28 18 38.0 162.2 990 0 9 -- Chart
1972 8 29 00 39.6 162.5 990 0 9 -- Chart
1972 8 29 06 41.7 163.2 996 0 2 -- Chart
1972 8 29 12 44.0 160.0 996 0 6 -- Chart
1972 8 29 18 46.0 157.0 996 0 6 -- Chart
1972 8 30 00 49.0 156.0 996 0 6 -- Chart
1972 8 30 06 51.0 154.0 998 0 6 -- Chart
1972 8 30 12 54.0 153.0 1000 0 6 -- Chart
1972 8 30 18 57.0 152.0 1000 0 6 -- Chart
1972 8 31 00 58.9 151.1 996 0 6 -- Chart
1972 8 31 06 59.8 151.3 994 0 6 -- Chart
1972 8 31 12 60.2 152.0 992 0 6 -- Chart
1972 8 31 18 60.4 152.5 992 0 6 -- Chart
1972 9 1 00 60.7 153.1 992 0 6 -- Chart
1972 9 1 06 61.0 154.2 994 0 6 -- Chart
1972 9 1 12 61.2 155.3 996 0 6 -- Chart
Japan Meteorological Agency Best Track Data | Correction Date : 1989-06-01
< Typhoon 197215 1972 Season Typhoon 197217 >

Help